createdAt,value
2017-12-04T00:01:39.641Z,52.77
2017-12-04T00:04:06.964Z,53.50
2017-12-04T00:06:34.359Z,53.37
2017-12-04T00:09:02.050Z,59.70
2017-12-04T00:11:29.468Z,61.20
2017-12-04T00:13:56.817Z,52.60
2017-12-04T00:16:24.142Z,62.63
2017-12-04T00:18:51.473Z,49.77
2017-12-04T00:21:18.815Z,59.27
2017-12-04T00:23:46.545Z,49.33
2017-12-04T00:26:13.880Z,51.80
2017-12-04T00:28:41.258Z,41.97
2017-12-04T00:31:08.611Z,65.20
2017-12-04T00:33:35.920Z,54.40
2017-12-04T00:36:03.666Z,51.30
2017-12-04T00:38:31.349Z,58.13
2017-12-04T00:40:59.095Z,60.10
2017-12-04T00:43:26.644Z,54.83
2017-12-04T00:45:53.970Z,56.50
2017-12-04T00:48:21.333Z,61.97
2017-12-04T00:50:49.088Z,52.23
2017-12-04T00:53:16.408Z,44.97
2017-12-04T00:55:43.828Z,64.10
2017-12-04T00:58:11.438Z,59.80
2017-12-04T01:00:38.773Z,58.40
2017-12-04T01:03:06.161Z,57.70
2017-12-04T01:05:33.552Z,61.03
2017-12-04T01:08:00.871Z,60.70
2017-12-04T01:10:28.211Z,54.33
2017-12-04T01:12:55.593Z,60.63
2017-12-04T01:15:22.914Z,62.23
2017-12-04T01:17:50.307Z,65.10
2017-12-04T01:20:17.941Z,60.27
2017-12-04T01:22:45.417Z,59.00
2017-12-04T01:25:12.740Z,71.60
2017-12-04T01:27:40.131Z,70.37
2017-12-04T01:30:07.795Z,69.13
2017-12-04T01:32:35.432Z,75.13
2017-12-04T01:35:02.792Z,69.23
2017-12-04T01:37:30.100Z,71.57
2017-12-04T01:39:57.443Z,74.53
2017-12-04T01:42:24.776Z,88.87
2017-12-04T01:44:52.397Z,81.90
2017-12-04T01:47:19.833Z,72.63
2017-12-04T01:49:47.629Z,85.87
2017-12-04T01:52:14.968Z,81.27
2017-12-04T01:54:42.347Z,89.27
2017-12-04T01:57:09.656Z,79.53
2017-12-04T01:59:36.990Z,77.70
2017-12-04T02:02:04.405Z,76.27
2017-12-04T02:04:31.752Z,82.33
2017-12-04T02:06:59.125Z,75.77
2017-12-04T02:09:26.772Z,73.77
2017-12-04T02:11:54.110Z,62.13
2017-12-04T02:14:21.484Z,68.43
2017-12-04T02:16:48.826Z,70.57
2017-12-04T02:19:16.133Z,55.73
2017-12-04T02:21:43.789Z,61.63
2017-12-04T02:24:11.405Z,57.67
2017-12-04T02:26:39.068Z,50.97
2017-12-04T02:29:06.756Z,48.97
2017-12-04T02:31:34.400Z,48.83
2017-12-04T02:34:01.777Z,54.03
2017-12-04T02:36:29.089Z,54.53
2017-12-04T02:38:56.491Z,51.30
2017-12-04T02:41:24.126Z,48.97
2017-12-04T02:43:51.485Z,47.73
2017-12-04T02:46:18.798Z,47.83
2017-12-04T02:48:46.204Z,51.30
2017-12-04T02:51:13.546Z,55.97
2017-12-04T02:53:40.850Z,45.30
2017-12-04T02:56:08.189Z,45.57
2017-12-04T02:58:35.807Z,55.33
2017-12-04T03:01:04.008Z,51.40
2017-12-04T03:03:31.640Z,63.63
2017-12-04T03:05:59.332Z,54.03
2017-12-04T03:08:26.655Z,51.50
2017-12-04T03:10:53.967Z,63.90
2017-12-04T03:13:21.301Z,72.83
2017-12-04T03:15:48.935Z,64.67
2017-12-04T03:18:16.322Z,54.77
2017-12-04T03:20:43.659Z,60.97
2017-12-04T03:23:11.349Z,57.70
2017-12-04T03:25:38.984Z,53.07
2017-12-04T03:28:06.726Z,62.57
2017-12-04T03:30:34.058Z,47.07
2017-12-04T03:33:01.735Z,52.90
2017-12-04T03:35:29.135Z,54.40
2017-12-04T03:37:56.862Z,51.40
2017-12-04T03:40:24.169Z,49.30
2017-12-04T03:42:51.501Z,48.20
2017-12-04T03:45:18.853Z,50.30
2017-12-04T03:47:46.348Z,52.47
2017-12-04T03:50:13.753Z,38.73
2017-12-04T03:52:41.161Z,49.93
2017-12-04T03:55:08.557Z,53.13
2017-12-04T03:57:35.985Z,53.57
2017-12-04T04:00:03.382Z,50.10
2017-12-04T04:02:31.042Z,41.27
2017-12-04T04:04:58.687Z,50.67
2017-12-04T04:07:26.014Z,52.30
2017-12-04T04:09:53.424Z,52.73
2017-12-04T04:12:21.043Z,47.30
2017-12-04T04:14:48.716Z,46.93
2017-12-04T04:17:16.046Z,48.33
2017-12-04T04:19:43.438Z,52.33
2017-12-04T04:22:10.900Z,51.13
2017-12-04T04:24:38.534Z,46.13
2017-12-04T04:27:06.346Z,50.63
2017-12-04T04:29:33.953Z,44.10
2017-12-04T04:32:01.272Z,39.90
2017-12-04T04:34:28.895Z,43.37
2017-12-04T04:36:56.536Z,37.53
2017-12-04T04:39:23.915Z,51.33
2017-12-04T04:41:51.672Z,35.83
2017-12-04T04:44:19.028Z,39.77
2017-12-04T04:46:46.333Z,34.43
2017-12-04T04:49:14.033Z,26.03
2017-12-04T04:51:41.369Z,35.20
2017-12-04T04:54:08.676Z,38.43
2017-12-04T04:56:36.313Z,34.17
2017-12-04T04:59:03.627Z,30.07
2017-12-04T05:01:31.357Z,33.27
2017-12-04T05:03:58.972Z,28.50
2017-12-04T05:06:26.349Z,29.30
2017-12-04T05:08:54.003Z,24.63
2017-12-04T05:11:21.320Z,29.27
2017-12-04T05:13:48.951Z,24.40
2017-12-04T05:16:16.573Z,28.17
2017-12-04T05:18:43.933Z,24.47
2017-12-04T05:21:11.203Z,30.70
2017-12-04T05:23:38.533Z,23.80
2017-12-04T05:26:05.874Z,28.03
2017-12-04T05:28:33.557Z,27.17
2017-12-04T05:31:00.860Z,29.50
2017-12-04T05:33:28.176Z,21.13
2017-12-04T05:35:55.818Z,30.57
2017-12-04T05:38:23.157Z,23.30
2017-12-04T05:40:50.817Z,22.57
2017-12-04T05:43:18.558Z,21.97
2017-12-04T05:45:46.177Z,18.67
2017-12-04T05:48:13.813Z,19.10
2017-12-04T05:50:41.622Z,20.23
2017-12-04T05:53:09.233Z,22.03
2017-12-04T05:55:36.896Z,18.30
2017-12-04T05:58:04.301Z,30.80
2017-12-04T06:00:31.913Z,24.80
2017-12-04T06:02:59.597Z,25.93
2017-12-04T06:05:26.901Z,23.20
2017-12-04T06:07:54.201Z,18.33
2017-12-04T06:10:21.506Z,16.70
2017-12-04T06:12:48.819Z,26.17
2017-12-04T06:15:16.596Z,19.87
2017-12-04T06:17:44.207Z,24.63
2017-12-04T06:20:11.899Z,23.10
2017-12-04T06:22:39.540Z,12.10
2017-12-04T06:25:07.186Z,21.50
2017-12-04T06:27:34.782Z,20.57
2017-12-04T06:30:02.427Z,23.80
2017-12-04T06:32:29.762Z,20.83
2017-12-04T06:34:57.466Z,19.00
2017-12-04T06:37:24.911Z,14.93
2017-12-04T06:39:52.199Z,20.03
2017-12-04T06:42:20.109Z,17.67
2017-12-04T06:44:47.433Z,15.83
2017-12-04T06:47:14.754Z,23.57
2017-12-04T06:49:42.276Z,15.93
2017-12-04T06:52:09.840Z,19.80
2017-12-04T06:54:37.533Z,19.27
2017-12-04T06:57:05.165Z,14.60
2017-12-04T06:59:32.727Z,22.97
2017-12-04T07:02:00.064Z,13.77
2017-12-04T07:04:27.761Z,23.60
2017-12-04T07:06:55.421Z,9.00
2017-12-04T07:09:22.725Z,14.70
2017-12-04T07:11:50.076Z,12.83
2017-12-04T07:14:17.367Z,13.03
2017-12-04T07:16:44.676Z,18.90
2017-12-04T07:19:11.996Z,8.27
2017-12-04T07:21:39.615Z,8.57
2017-12-04T07:24:07.314Z,15.20
2017-12-04T07:26:34.949Z,9.33
2017-12-04T07:29:02.636Z,17.97
2017-12-04T07:31:30.468Z,21.80
2017-12-04T07:33:58.362Z,11.67
2017-12-04T07:36:25.707Z,10.93
2017-12-04T07:38:53.062Z,12.40
2017-12-04T07:41:20.868Z,19.70
2017-12-04T07:43:48.483Z,12.27
2017-12-04T07:46:15.883Z,9.60
2017-12-04T07:48:43.191Z,9.80
2017-12-04T07:51:10.845Z,12.43
2017-12-04T07:53:38.529Z,12.60
2017-12-04T07:56:05.856Z,13.43
2017-12-04T07:58:33.545Z,5.50
2017-12-04T08:01:00.893Z,10.80
2017-12-04T08:03:28.238Z,11.80
2017-12-04T08:05:55.897Z,14.63
2017-12-04T08:08:23.206Z,11.57
2017-12-04T08:10:50.834Z,13.73
2017-12-04T08:13:18.497Z,11.67
2017-12-04T08:15:45.814Z,22.80
2017-12-04T08:18:13.490Z,14.10
2017-12-04T08:20:40.891Z,19.43
2017-12-04T08:23:08.509Z,14.60
2017-12-04T08:25:36.159Z,20.93
2017-12-04T08:28:03.485Z,11.30
2017-12-04T08:30:30.789Z,17.50
2017-12-04T08:32:58.141Z,10.30
2017-12-04T08:35:25.450Z,18.17
2017-12-04T08:37:52.750Z,11.40
2017-12-04T08:40:20.081Z,8.23
2017-12-04T08:42:47.488Z,7.67
2017-12-04T08:45:14.782Z,11.03
2017-12-04T08:47:42.468Z,16.10
2017-12-04T08:50:10.182Z,14.83
2017-12-04T08:52:37.797Z,13.67
2017-12-04T08:55:05.088Z,6.57
2017-12-04T08:57:32.728Z,17.03
2017-12-04T09:00:00.564Z,14.67
2017-12-04T09:02:27.909Z,17.97
2017-12-04T09:04:55.593Z,10.70
2017-12-04T09:07:22.930Z,10.97
2017-12-04T09:09:50.256Z,17.30
2017-12-04T09:12:17.556Z,10.17
2017-12-04T09:14:44.877Z,8.30
2017-12-04T09:17:12.172Z,20.03
2017-12-04T09:19:39.503Z,15.00
2017-12-04T09:22:07.159Z,9.20
2017-12-04T09:24:34.871Z,11.70
2017-12-04T09:27:02.490Z,12.00
2017-12-04T09:29:29.789Z,8.17
2017-12-04T09:31:57.415Z,8.73
2017-12-04T09:34:24.713Z,11.27
2017-12-04T09:36:52.033Z,8.60
2017-12-04T09:39:19.496Z,10.13
2017-12-04T09:41:47.249Z,9.23
2017-12-04T09:44:14.550Z,13.07
2017-12-04T09:46:41.848Z,12.57
2017-12-04T09:49:09.164Z,25.70
2017-12-04T09:51:36.857Z,13.07
2017-12-04T09:54:04.194Z,14.77
2017-12-04T09:56:31.573Z,2.97
2017-12-04T09:58:58.928Z,3.50
2017-12-04T10:01:26.379Z,4.93
2017-12-04T10:03:53.732Z,8.13
2017-12-04T10:06:21.127Z,7.97
2017-12-04T10:08:48.550Z,5.90
2017-12-04T10:11:15.867Z,5.40
2017-12-04T10:13:43.179Z,5.63
2017-12-04T10:16:10.597Z,6.73
2017-12-04T10:18:38.216Z,12.73
2017-12-04T10:21:06.162Z,7.13
2017-12-04T10:23:33.810Z,9.17
2017-12-04T10:26:01.694Z,6.23
2017-12-04T10:28:29.177Z,6.60
2017-12-04T10:30:56.470Z,16.50
2017-12-04T10:33:23.987Z,10.53
2017-12-04T10:35:51.480Z,10.50
2017-12-04T10:38:19.135Z,5.27
2017-12-04T10:40:46.829Z,7.77
2017-12-04T10:43:14.123Z,6.77
2017-12-04T10:45:41.746Z,11.33
2017-12-04T10:48:09.436Z,11.17
2017-12-04T10:50:37.087Z,13.10
2017-12-04T10:53:04.406Z,8.10
2017-12-04T10:55:32.051Z,10.70
2017-12-04T10:57:59.741Z,18.23
2017-12-04T11:00:27.084Z,7.83
2017-12-04T11:02:54.578Z,12.97
2017-12-04T11:05:21.897Z,14.30
2017-12-04T11:07:49.597Z,11.73
2017-12-04T11:10:17.220Z,15.03
2017-12-04T11:12:45.448Z,12.53
2017-12-04T11:15:13.326Z,10.70
2017-12-04T11:17:41.437Z,14.57
2017-12-04T11:20:09.168Z,20.33
2017-12-04T11:22:36.471Z,12.60
2017-12-04T11:25:04.157Z,19.80
2017-12-04T11:27:31.539Z,20.07
2017-12-04T11:29:59.028Z,13.93
2017-12-04T11:32:26.362Z,15.57
2017-12-04T11:34:53.661Z,17.13
2017-12-04T11:37:21.385Z,11.93
2017-12-04T11:39:49.159Z,13.33
2017-12-04T11:42:16.862Z,10.77
2017-12-04T11:44:44.475Z,7.73
2017-12-04T11:47:13.345Z,12.37
2017-12-04T11:49:40.923Z,17.93
2017-12-04T11:52:09.190Z,9.17
2017-12-04T11:54:37.351Z,13.03
2017-12-04T11:57:04.643Z,11.10
2017-12-04T11:59:31.958Z,9.23
2017-12-04T12:01:59.266Z,7.87
2017-12-04T12:04:26.639Z,10.70
2017-12-04T12:06:54.010Z,10.77
2017-12-04T12:09:21.826Z,8.90
2017-12-04T12:11:49.802Z,7.20
2017-12-04T12:14:18.036Z,5.47
2017-12-04T12:16:45.903Z,7.60
2017-12-04T12:19:14.499Z,5.77
2017-12-04T12:21:42.608Z,8.20
2017-12-04T12:24:10.650Z,8.10
2017-12-04T12:26:38.816Z,8.10
2017-12-04T12:29:06.794Z,9.67
2017-12-04T12:31:35.671Z,12.20
2017-12-04T12:34:03.873Z,10.70
2017-12-04T12:36:31.826Z,10.03
2017-12-04T12:39:00.269Z,13.50
2017-12-04T12:41:28.388Z,14.20
2017-12-04T12:43:56.743Z,8.93
2017-12-04T12:46:25.001Z,10.73
2017-12-04T12:48:52.879Z,9.00
2017-12-04T12:51:21.406Z,5.87
2017-12-04T12:53:49.522Z,8.23
2017-12-04T12:56:17.447Z,11.30
2017-12-04T12:58:45.201Z,9.50
2017-12-04T13:01:13.437Z,12.03
2017-12-04T13:03:41.607Z,8.00
2017-12-04T13:06:09.784Z,9.17
2017-12-04T13:08:37.954Z,10.33
2017-12-04T13:11:06.255Z,7.40
2017-12-04T13:13:34.310Z,13.83
2017-12-04T13:16:02.044Z,9.63
2017-12-04T13:18:29.502Z,7.40
2017-12-04T13:20:57.136Z,11.00
2017-12-04T13:23:24.944Z,9.43
2017-12-04T13:25:52.687Z,6.70
2017-12-04T13:28:20.661Z,8.73
2017-12-04T13:30:49.195Z,4.73
2017-12-04T13:33:22.985Z,16.20
2017-12-04T13:35:56.992Z,16.37
2017-12-04T13:38:24.947Z,11.00
2017-12-04T13:40:53.122Z,14.23
2017-12-04T13:43:21.221Z,10.93
2017-12-04T13:45:49.680Z,6.43
2017-12-04T13:48:17.757Z,15.17
2017-12-04T13:50:45.811Z,11.73
2017-12-04T13:53:14.011Z,7.50
2017-12-04T13:55:42.168Z,15.60
2017-12-04T13:58:10.144Z,9.30
2017-12-04T14:00:38.815Z,13.20
2017-12-04T14:03:07.086Z,9.53
2017-12-04T14:05:35.266Z,10.50
2017-12-04T14:08:03.444Z,9.97
2017-12-04T14:10:31.513Z,8.47
2017-12-04T14:12:59.881Z,13.43
2017-12-04T14:15:28.201Z,7.43
2017-12-04T14:17:56.364Z,8.73
2017-12-04T14:20:24.403Z,8.33
2017-12-04T14:22:52.482Z,6.07
2017-12-04T14:25:20.216Z,10.83
2017-12-04T14:27:48.939Z,8.63
2017-12-04T14:30:16.689Z,7.83
2017-12-04T14:32:44.874Z,15.17
2017-12-04T14:35:13.268Z,13.60
2017-12-04T14:37:41.424Z,8.53
2017-12-04T14:40:09.711Z,4.87
2017-12-04T14:42:38.014Z,12.60
2017-12-04T14:45:06.772Z,6.60
2017-12-04T14:47:34.974Z,9.20
2017-12-04T14:50:03.380Z,7.93
2017-12-04T14:52:31.487Z,12.20
2017-12-04T14:54:58.856Z,7.10
2017-12-04T14:57:27.332Z,7.00
2017-12-04T14:59:55.861Z,15.07
2017-12-04T15:02:24.724Z,5.67
2017-12-04T15:04:52.342Z,10.83
2017-12-04T15:07:20.431Z,6.60
2017-12-04T15:09:48.806Z,7.63
2017-12-04T15:12:16.654Z,11.23
2017-12-04T15:14:44.852Z,9.47
2017-12-04T15:17:12.840Z,7.10
2017-12-04T15:19:40.978Z,14.03
2017-12-04T15:22:09.175Z,8.90
2017-12-04T15:24:37.440Z,6.17
2017-12-04T15:27:05.645Z,10.73
2017-12-04T15:29:34.123Z,10.33
2017-12-04T15:32:02.375Z,10.37
2017-12-04T15:34:30.880Z,7.47
2017-12-04T15:36:58.942Z,11.23
2017-12-04T15:39:27.246Z,9.20
2017-12-04T15:41:55.676Z,7.70
2017-12-04T15:44:23.859Z,7.33
2017-12-04T15:46:52.346Z,9.00
2017-12-04T15:49:20.537Z,7.00
2017-12-04T15:51:48.436Z,11.47
2017-12-04T15:54:16.962Z,20.17
2017-12-04T15:56:45.326Z,13.77
2017-12-04T15:59:13.510Z,11.77
2017-12-04T16:01:41.145Z,8.90
2017-12-04T16:04:09.550Z,11.13
2017-12-04T16:06:37.751Z,10.20
2017-12-04T16:09:06.325Z,9.63
2017-12-04T16:11:34.383Z,7.30
2017-12-04T16:14:02.551Z,9.87
2017-12-04T16:16:30.494Z,9.20
2017-12-04T16:18:58.801Z,10.50
2017-12-04T16:21:26.462Z,8.37
2017-12-04T16:23:54.650Z,8.53
2017-12-04T16:26:22.361Z,11.67
2017-12-04T16:28:50.067Z,8.57
2017-12-04T16:31:17.807Z,7.10
2017-12-04T16:33:45.552Z,13.53
2017-12-04T16:36:13.446Z,5.80
2017-12-04T16:38:42.639Z,7.80
2017-12-04T16:41:11.068Z,7.60
2017-12-04T16:43:39.523Z,9.00
2017-12-04T16:46:07.468Z,11.27
2017-12-04T16:48:35.863Z,9.80
2017-12-04T16:51:03.925Z,12.83
2017-12-04T16:53:32.271Z,7.70
2017-12-04T16:56:00.364Z,9.17
2017-12-04T16:58:28.189Z,9.10
2017-12-04T17:00:55.974Z,6.27
2017-12-04T17:03:23.813Z,6.87
2017-12-04T17:05:51.643Z,12.27
2017-12-04T17:08:19.383Z,7.37
2017-12-04T17:10:47.404Z,6.00
2017-12-04T17:13:15.633Z,8.47
2017-12-04T17:15:43.331Z,9.47
2017-12-04T17:18:11.453Z,11.53
2017-12-04T17:20:39.753Z,8.63
2017-12-04T17:23:07.921Z,11.77
2017-12-04T17:25:35.685Z,8.37
2017-12-04T17:28:03.995Z,8.00
2017-12-04T17:30:31.723Z,7.53
2017-12-04T17:33:00.148Z,3.50
2017-12-04T17:35:28.286Z,11.47
2017-12-04T17:37:56.680Z,8.60
2017-12-04T17:40:24.306Z,17.13
2017-12-04T17:42:52.738Z,7.30
2017-12-04T17:45:20.718Z,5.13
2017-12-04T17:47:49.153Z,5.53
2017-12-04T17:50:17.360Z,10.60
2017-12-04T17:52:45.493Z,8.80
2017-12-04T17:55:13.637Z,7.47
2017-12-04T17:57:41.791Z,16.10
2017-12-04T18:00:09.730Z,10.63
2017-12-04T18:02:37.037Z,9.83
2017-12-04T18:05:04.697Z,15.73
2017-12-04T18:07:31.989Z,10.40
2017-12-04T18:09:59.339Z,16.90
2017-12-04T18:12:26.645Z,13.10
2017-12-04T18:14:53.945Z,10.77
2017-12-04T18:17:21.259Z,9.70
2017-12-04T18:19:48.705Z,15.50
2017-12-04T18:22:16.783Z,12.13
2017-12-04T18:24:44.107Z,9.17
2017-12-04T18:27:11.417Z,12.33
2017-12-04T18:29:39.247Z,7.13
2017-12-04T18:32:06.923Z,8.70
2017-12-04T18:34:38.163Z,7.27
2017-12-04T18:37:05.603Z,10.53
2017-12-04T18:39:33.377Z,9.63
2017-12-04T18:42:00.711Z,11.07
2017-12-04T18:44:28.105Z,8.20
2017-12-04T18:46:55.720Z,8.77
2017-12-04T18:49:23.537Z,9.47
2017-12-04T18:51:51.161Z,11.50
2017-12-04T18:54:18.860Z,10.20
2017-12-04T18:56:46.512Z,8.67
2017-12-04T18:59:14.128Z,10.97
2017-12-04T19:01:41.846Z,15.20
2017-12-04T19:04:09.536Z,15.50
2017-12-04T19:06:36.870Z,10.37
2017-12-04T19:09:04.525Z,10.33
2017-12-04T19:11:32.203Z,7.83
2017-12-04T19:13:59.802Z,8.53
2017-12-04T19:16:27.191Z,8.23
2017-12-04T19:18:54.542Z,11.73
2017-12-04T19:21:21.928Z,12.20
2017-12-04T19:23:49.546Z,6.17
2017-12-04T19:26:16.844Z,10.53
2017-12-04T19:28:44.165Z,10.77
2017-12-04T19:31:11.898Z,6.27
2017-12-04T19:33:39.265Z,16.93
2017-12-04T19:36:06.912Z,7.97
2017-12-04T19:38:34.609Z,12.00
2017-12-04T19:41:02.276Z,13.13
2017-12-04T19:43:29.899Z,8.80
2017-12-04T19:45:57.225Z,12.20
2017-12-04T19:48:24.934Z,9.07
2017-12-04T19:50:52.341Z,20.53
2017-12-04T19:53:19.645Z,8.60
2017-12-04T19:55:46.969Z,16.43
2017-12-04T19:58:14.637Z,9.50
2017-12-04T20:00:42.303Z,16.37
2017-12-04T20:03:09.694Z,20.63
2017-12-04T20:05:37.070Z,7.67
2017-12-04T20:08:04.597Z,7.93
2017-12-04T20:10:31.928Z,9.77
2017-12-04T20:12:59.758Z,9.13
2017-12-04T20:15:27.057Z,11.50
2017-12-04T20:17:54.408Z,12.83
2017-12-04T20:20:21.751Z,12.63
2017-12-04T20:22:49.413Z,13.07
2017-12-04T20:25:17.079Z,8.33
2017-12-04T20:27:44.725Z,7.17
2017-12-04T20:30:12.067Z,8.93
2017-12-04T20:32:39.379Z,15.80
2017-12-04T20:35:07.025Z,9.73
2017-12-04T20:37:34.403Z,8.30
2017-12-04T20:40:02.092Z,11.37
2017-12-04T20:42:29.400Z,9.70
2017-12-04T20:44:56.692Z,12.73
2017-12-04T20:47:24.009Z,9.53
2017-12-04T20:49:51.645Z,14.40
2017-12-04T20:52:19.336Z,5.70
2017-12-04T20:54:46.628Z,14.10
2017-12-04T20:57:13.952Z,7.90
2017-12-04T20:59:41.255Z,13.00
2017-12-04T21:02:08.957Z,8.90
2017-12-04T21:04:36.623Z,10.53
2017-12-04T21:07:04.266Z,10.53
2017-12-04T21:09:37.622Z,14.00
2017-12-04T21:12:04.980Z,7.03
2017-12-04T21:14:38.240Z,11.80
2017-12-04T21:17:11.549Z,8.10
2017-12-04T21:19:38.913Z,16.07
2017-12-04T21:22:06.209Z,6.90
2017-12-04T21:24:33.521Z,9.00
2017-12-04T21:27:00.822Z,13.40
2017-12-04T21:29:28.168Z,9.57
2017-12-04T21:31:56.641Z,4.90
2017-12-04T21:34:24.319Z,9.03
2017-12-04T21:36:51.640Z,18.13
2017-12-04T21:39:19.159Z,7.73
2017-12-04T21:41:46.843Z,10.60
2017-12-04T21:44:14.625Z,14.67
2017-12-04T21:46:41.924Z,9.43
2017-12-04T21:49:09.590Z,14.87
2017-12-04T21:51:36.901Z,10.90
2017-12-04T21:54:04.287Z,9.30
2017-12-04T21:56:31.756Z,8.90
2017-12-04T21:58:59.385Z,10.70
2017-12-04T22:01:27.072Z,9.43
2017-12-04T22:03:54.396Z,17.57
2017-12-04T22:06:22.094Z,14.43
2017-12-04T22:08:49.852Z,11.50
2017-12-04T22:11:17.513Z,9.80
2017-12-04T22:13:44.868Z,9.43
2017-12-04T22:16:12.212Z,9.53
2017-12-04T22:18:39.526Z,11.30
2017-12-04T22:21:06.845Z,10.67
2017-12-04T22:23:34.346Z,13.93
2017-12-04T22:26:01.653Z,9.43
2017-12-04T22:28:29.001Z,18.53
2017-12-04T22:30:56.320Z,12.50
2017-12-04T22:33:23.657Z,10.17
2017-12-04T22:35:50.975Z,15.73
2017-12-04T22:38:18.319Z,8.20
2017-12-04T22:40:45.652Z,14.10
2017-12-04T22:43:12.952Z,7.50
2017-12-04T22:45:40.333Z,11.60
2017-12-04T22:48:07.986Z,11.97
2017-12-04T22:50:35.413Z,7.87
2017-12-04T22:53:03.216Z,15.93
2017-12-04T22:55:31.120Z,12.93
2017-12-04T22:57:58.761Z,11.23
2017-12-04T23:00:30.366Z,9.37
2017-12-04T23:02:58.172Z,13.60
2017-12-04T23:05:26.015Z,13.07
2017-12-04T23:07:53.269Z,13.63
2017-12-04T23:10:21.174Z,18.50
2017-12-04T23:12:48.476Z,10.57
2017-12-04T23:15:15.813Z,14.00
2017-12-04T23:17:43.103Z,9.93
2017-12-04T23:20:11.040Z,10.07
2017-12-04T23:22:38.861Z,10.70
2017-12-04T23:25:06.161Z,7.03
2017-12-04T23:27:33.985Z,10.77
2017-12-04T23:30:01.281Z,8.50
2017-12-04T23:32:29.123Z,15.13
2017-12-04T23:34:56.670Z,7.77
2017-12-04T23:37:24.635Z,14.10
2017-12-04T23:39:51.931Z,11.77
2017-12-04T23:42:19.243Z,8.73
2017-12-04T23:44:46.558Z,14.90
2017-12-04T23:47:13.897Z,16.03
2017-12-04T23:49:41.212Z,13.23
2017-12-04T23:52:08.556Z,15.00
2017-12-04T23:54:35.927Z,10.30
2017-12-04T23:57:03.689Z,15.27
2017-12-04T23:59:31.589Z,8.40
